Предлагаем Вашему вниманию английскую версию страницы: AUTOTAF.ME 37808 - aviation weather forecast Martuni

AUTOTAF 37808 - авиапрогноз Мартуни

Сегодня рассвет 03:32 UTC, восход солнца 04:02 UTC,
местный полдень 08:48 UTC, заход солнца 13:33 UTC,
наступление темноты 14:03 UTC.

Краткий прогноз 37808 на 9 часов

AUTOTAF.ME 37808 020800Z 0209/0218 19003MPS 9999 BKN020TCU     
  FM021500 VRB02MPS CAVOK 
  FM021800 VRB02MPS 5000 HZ NSC

Детальный прогноз 37808 на 24 часа

AUTOTAF.ME 37808 020800Z 0209/0309 19003MPS 9999 BKN020TCU TXM03/0209Z TNM10/0300Z   
  FM021500 VRB02MPS 9999 SCT250 
  FM021800 VRB02MPS 5000 HZ BKN078 
  BECMG 0219/0221 SKC   
  FM030300 VRB02MPS 3000 HZ OVC005 
  FM030600 VRB02MPS 9999 SKC 
  FM030900 VRB02MPS 9999 VCSH BKN020CB

Подробный табличный прогноз

Время (UTC) miniAUTOTAF на 3 ч WX FZLVL
M AGL
ICE TURB Т
(°С)
Тd
(°С)
f(%) QNH
(гПа)
WIND/T
06 17003MPS 9999 VCSH BKN020CB TEMPO 1500 VCSH SFC MOD FL150/FL160 -6 -7 88 1024 ...
09 19003MPS 9999 BKN020TCU 360 -3 -5 87 1022 ...
12 VRB02MPS 9999 BKN019TCU 150 -5 -6 91 1021 ...
15 VRB02MPS 9999 SCT250 SFC -8 -12 77 1023 ...
18 VRB02MPS 5000 HZ BKN078 HZ SFC -9 -13 72 1024 ...
21 VRB02MPS 5000 HZ SKC HZ SFC -9 -14 69 1025 ...
03.12.2020
00 VRB02MPS 5000 HZ SKC HZ SFC -10 -14 71 1025 ...
03 VRB02MPS 3000 HZ OVC005 HZ SFC -10 -14 72 1025 ...
06 VRB02MPS 9999 SKC SFC -6 -9 79 1026 ...
09 VRB02MPS 9999 VCSH BKN020CB TEMPO 1500 VCSH 360 MOD FL110/FL120 -3 -7 77 1024 ...
12 VRB02MPS 9999 VCSH BKN020CB TEMPO 1500 VCSH 60 MOD FL110/FL120 -5 -7 87 1023 ...
15 VRB02MPS 9999 SKC SFC -9 -13 75 1025 ...
18 VRB02MPS 9999 SKC SFC -10 -14 70 1025 ...
21 VRB02MPS 9999 SKC SFC -10 -14 70 1026 ...
04.12.2020
00 VRB02MPS 9999 SKC SFC -10 -14 72 1025 ...
03 VRB02MPS 9999 SKC SFC -10 -15 69 1025 ...


Широта 40.1°, долгота 45.3°, высота 1945 м абс.
Средняя высота рельефа местности 2810 м абс.
Прогнозы обновляются четыре раза в сутки: в 02, 08, 14, 20 ч всемирного времени.


Выбрать прогноз по другой модели Мартуни
Онлайн-сводка гроз по Мартуни (для РФ и ближнего зарубежья)
Карта фактических гроз в окрестностях Мартуни
Динамические прогностические карты (ventusky.com)
Прогностическая карта высоты нижней границы облаков по Мартуни (windy.com)
Выбрать другой город

Прогноз предназначен для личного научно-познавательного использования частными лицами
и не предназначен для принятия важных решений и выполнения реальных полётов воздушных судов

При копировании или ином использовании любых материалов данного сайта ссылка на © meteocenter.asia обязательна.

0.59/0.7